createdAt,value
2019-03-13T00:42:51.384Z,2.40
2019-03-13T00:45:20.971Z,2.47
2019-03-13T00:47:47.233Z,2.50
2019-03-13T00:50:26.229Z,2.60
2019-03-13T00:52:56.161Z,2.63
2019-03-13T00:55:28.662Z,2.27
2019-03-13T00:57:54.953Z,3.03
2019-03-13T01:00:39.706Z,2.90
2019-03-13T01:03:09.801Z,2.40
2019-03-13T01:05:41.198Z,3.07
2019-03-13T01:08:13.329Z,2.98
2019-03-13T01:10:39.593Z,2.33
2019-03-13T01:13:05.939Z,2.93
2019-03-13T01:15:32.279Z,2.50
2019-03-13T01:17:58.662Z,2.40
2019-03-13T01:20:24.969Z,2.20
2019-03-13T01:22:51.268Z,2.60
2019-03-13T01:25:17.542Z,2.47
2019-03-13T01:27:43.913Z,2.30
2019-03-13T01:30:11.497Z,2.70
2019-03-13T01:32:39.988Z,2.87
2019-03-13T01:35:13.987Z,2.00
2019-03-13T01:37:40.285Z,3.23
2019-03-13T01:40:08.621Z,3.10
2019-03-13T01:42:34.921Z,2.50
2019-03-13T01:45:01.197Z,3.00
2019-03-13T01:47:27.529Z,2.77
2019-03-13T01:49:53.810Z,2.33
2019-03-13T01:52:20.117Z,3.37
2019-03-13T01:54:46.395Z,2.60
2019-03-13T01:57:12.701Z,2.70
2019-03-13T01:59:39.014Z,2.53
2019-03-13T02:02:11.388Z,2.60
2019-03-13T02:04:37.669Z,3.20
2019-03-13T02:07:03.985Z,3.20
2019-03-13T02:09:30.410Z,2.87
2019-03-13T02:11:56.697Z,3.20
2019-03-13T02:14:22.994Z,3.90
2019-03-13T02:16:49.310Z,2.83
2019-03-13T02:19:15.607Z,3.20
2019-03-13T02:21:41.891Z,2.60
2019-03-13T02:24:08.291Z,2.80
2019-03-13T02:26:34.611Z,2.93
2019-03-13T02:29:00.843Z,2.90
2019-03-13T02:31:27.129Z,3.70
2019-03-13T02:33:53.423Z,2.97
2019-03-13T02:36:19.733Z,3.07
2019-03-13T02:38:46.010Z,4.17
2019-03-13T02:41:12.325Z,3.03
2019-03-13T02:43:38.725Z,3.07
2019-03-13T02:46:05.029Z,2.60
2019-03-13T02:48:31.342Z,3.27
2019-03-13T02:50:57.716Z,3.50
2019-03-13T02:53:25.070Z,3.60
2019-03-13T02:55:51.419Z,2.77
2019-03-13T02:58:17.684Z,3.30
2019-03-13T03:00:48.819Z,3.60
2019-03-13T03:03:26.220Z,2.87
2019-03-13T03:05:52.499Z,3.50
2019-03-13T03:08:18.956Z,2.53
2019-03-13T03:10:45.331Z,2.87
2019-03-13T03:13:11.596Z,3.37
2019-03-13T03:15:37.922Z,3.50
2019-03-13T03:18:05.224Z,3.60
2019-03-13T03:20:31.596Z,2.83
2019-03-13T03:22:58.907Z,3.40
2019-03-13T03:25:25.184Z,2.60
2019-03-13T03:27:51.462Z,3.13
2019-03-13T03:30:22.439Z,3.20
2019-03-13T03:32:54.721Z,3.40
2019-03-13T03:35:21.207Z,3.17
2019-03-13T03:37:47.665Z,2.60
2019-03-13T03:40:15.778Z,3.83
2019-03-13T03:42:42.159Z,3.07
2019-03-13T03:45:08.936Z,3.20
2019-03-13T03:47:41.616Z,3.63
2019-03-13T03:50:11.145Z,3.37
2019-03-13T03:52:37.407Z,3.67
2019-03-13T03:55:10.825Z,3.80
2019-03-13T03:57:37.133Z,3.10
2019-03-13T04:00:18.269Z,3.10
2019-03-13T04:02:44.752Z,3.85
2019-03-13T04:05:14.163Z,4.20
2019-03-13T04:07:41.059Z,4.10
2019-03-13T04:10:11.467Z,4.00
2019-03-13T04:12:37.824Z,4.40
2019-03-13T04:15:06.548Z,4.37
2019-03-13T04:17:32.826Z,4.17
2019-03-13T04:20:19.045Z,3.70
2019-03-13T04:22:45.323Z,4.30
2019-03-13T04:25:24.722Z,3.73
2019-03-13T04:27:51.003Z,3.60
2019-03-13T04:30:17.301Z,4.43
2019-03-13T04:32:43.576Z,4.00
2019-03-13T04:35:09.915Z,4.10
2019-03-13T04:37:36.206Z,4.67
2019-03-13T04:40:04.137Z,4.23
2019-03-13T04:42:30.398Z,4.30
2019-03-13T04:44:56.686Z,4.33
2019-03-13T04:47:25.071Z,4.03
2019-03-13T04:49:51.122Z,5.33
2019-03-13T04:52:17.460Z,3.80
2019-03-13T04:54:43.789Z,3.77
2019-03-13T04:57:10.056Z,3.83
2019-03-13T04:59:37.334Z,3.60
2019-03-13T05:02:03.742Z,4.00
2019-03-13T05:04:31.030Z,4.07
2019-03-13T05:06:57.406Z,3.53
2019-03-13T05:09:27.561Z,3.77
2019-03-13T05:12:00.057Z,3.43
2019-03-13T05:14:26.330Z,3.97
2019-03-13T05:16:52.630Z,3.77
2019-03-13T05:19:18.909Z,4.53
2019-03-13T05:21:48.330Z,3.70
2019-03-13T05:24:26.507Z,3.53
2019-03-13T05:26:55.893Z,4.97
2019-03-13T05:29:28.497Z,3.87
2019-03-13T05:31:57.982Z,3.90
2019-03-13T05:34:26.281Z,3.60
2019-03-13T05:36:53.667Z,4.53
2019-03-13T05:39:26.089Z,3.50
2019-03-13T05:42:01.646Z,3.67
2019-03-13T05:44:36.914Z,3.50
2019-03-13T05:47:06.571Z,4.90
2019-03-13T05:49:32.945Z,3.93
2019-03-13T05:52:08.326Z,3.83
2019-03-13T05:54:38.212Z,3.87
2019-03-13T05:57:04.550Z,3.53
2019-03-13T05:59:33.978Z,4.07
2019-03-13T06:02:03.591Z,4.10
2019-03-13T06:04:57.825Z,3.73
2019-03-13T06:07:50.248Z,4.77
2019-03-13T06:10:29.681Z,4.13
2019-03-13T06:12:56.118Z,3.93
2019-03-13T06:15:28.328Z,4.83
2019-03-13T06:18:00.790Z,3.43
2019-03-13T06:20:30.309Z,3.97
2019-03-13T06:23:02.602Z,4.00
2019-03-13T06:25:31.975Z,3.97
2019-03-13T06:28:07.757Z,3.97
2019-03-13T06:30:58.097Z,4.07
2019-03-13T06:33:27.534Z,3.73
2019-03-13T06:35:56.930Z,3.60
2019-03-13T06:38:40.700Z,4.30
2019-03-13T06:41:15.179Z,3.70
2019-03-13T06:43:47.514Z,4.33
2019-03-13T06:46:16.959Z,4.00
2019-03-13T06:48:46.366Z,3.53
2019-03-13T06:51:15.869Z,4.23
2019-03-13T06:54:11.137Z,3.90
2019-03-13T06:56:48.398Z,4.67
2019-03-13T06:59:16.648Z,3.43
2019-03-13T07:01:47.614Z,3.63
2019-03-13T07:04:21.658Z,4.25
2019-03-13T07:06:52.849Z,3.53
2019-03-13T07:09:22.142Z,5.03
2019-03-13T07:11:54.456Z,3.73
2019-03-13T07:14:31.657Z,4.57
2019-03-13T07:17:09.114Z,4.23
2019-03-13T07:20:08.911Z,4.13
2019-03-13T07:22:39.849Z,3.90
2019-03-13T07:25:14.689Z,5.08
2019-03-13T07:28:29.829Z,4.17
2019-03-13T07:31:00.033Z,4.63
2019-03-13T07:33:29.286Z,4.10
2019-03-13T07:36:08.645Z,4.80
2019-03-13T07:38:41.685Z,4.80
2019-03-13T07:41:18.161Z,4.70
2019-03-13T07:43:53.729Z,4.43
2019-03-13T07:46:28.196Z,3.90
2019-03-13T07:48:56.421Z,4.87
2019-03-13T07:51:27.393Z,4.10
2019-03-13T07:54:01.765Z,5.00
2019-03-13T07:56:41.688Z,4.80
2019-03-13T07:59:15.108Z,4.53
2019-03-13T08:01:55.706Z,3.50
2019-03-13T08:04:27.021Z,4.50
2019-03-13T08:07:01.439Z,4.15
2019-03-13T08:09:38.971Z,3.50
2019-03-13T08:12:20.502Z,3.70
2019-03-13T08:15:00.599Z,3.27
2019-03-13T08:17:31.805Z,3.10
2019-03-13T08:20:03.185Z,3.35
2019-03-13T08:22:40.225Z,3.00
2019-03-13T08:25:12.997Z,3.67
2019-03-13T08:27:47.011Z,3.40
2019-03-13T08:30:33.385Z,4.57
2019-03-13T08:33:10.497Z,3.40
2019-03-13T08:35:52.688Z,3.90
2019-03-13T08:38:25.991Z,4.50
2019-03-13T08:41:06.435Z,3.97
2019-03-13T08:43:37.707Z,3.97
2019-03-13T08:46:21.152Z,3.72
2019-03-13T08:49:01.392Z,4.57
2019-03-13T08:51:32.910Z,4.93
2019-03-13T08:54:26.420Z,3.98
2019-03-13T08:57:19.099Z,4.10
2019-03-13T09:00:11.304Z,3.90
2019-03-13T09:05:55.372Z,4.27
2019-03-13T09:08:40.446Z,3.63
2019-03-13T09:11:14.743Z,4.13
2019-03-13T09:14:01.793Z,3.87
2019-03-13T09:16:36.117Z,3.60
2019-03-13T09:19:07.206Z,4.27
2019-03-13T09:21:35.460Z,4.25
2019-03-13T09:24:06.311Z,3.63
2019-03-13T09:26:55.559Z,4.47
2019-03-13T09:29:36.171Z,4.50
2019-03-13T09:32:37.176Z,4.70
2019-03-13T09:35:13.282Z,5.03
2019-03-13T09:38:06.588Z,3.97
2019-03-13T09:40:37.737Z,4.83
2019-03-13T09:43:23.923Z,4.20
2019-03-13T09:46:10.449Z,4.80
2019-03-13T09:49:18.443Z,5.23
2019-03-13T09:51:49.692Z,4.73
2019-03-13T09:54:35.819Z,5.40
2019-03-13T09:57:20.609Z,4.87
2019-03-13T10:00:00.898Z,5.60
2019-03-13T10:02:33.880Z,4.50
2019-03-13T10:05:03.150Z,4.93
2019-03-13T10:07:34.645Z,4.77
2019-03-13T10:10:11.928Z,4.78
2019-03-13T10:12:52.171Z,4.70
2019-03-13T10:15:38.933Z,4.70
2019-03-13T10:18:16.168Z,4.50
2019-03-13T10:20:44.428Z,5.57
2019-03-13T10:23:24.592Z,4.30
2019-03-13T10:26:07.895Z,5.07
2019-03-13T10:28:45.085Z,4.37
2019-03-13T10:31:19.641Z,5.67
2019-03-13T10:34:13.486Z,4.80
2019-03-13T10:36:41.767Z,5.40
2019-03-13T10:39:13.058Z,5.30
2019-03-13T10:41:59.662Z,4.90
2019-03-13T10:44:28.910Z,5.63
2019-03-13T10:47:00.273Z,4.93
2019-03-13T10:49:28.754Z,5.58
2019-03-13T10:51:59.939Z,4.90
2019-03-13T10:54:44.768Z,6.60
2019-03-13T10:57:12.945Z,6.17
2019-03-13T10:59:49.985Z,4.77
2019-03-13T11:02:23.965Z,5.77
2019-03-13T11:04:58.435Z,5.60
2019-03-13T11:07:28.786Z,5.77
2019-03-13T11:10:14.882Z,5.07
2019-03-13T11:12:58.230Z,6.00
2019-03-13T11:15:29.258Z,7.13
2019-03-13T11:18:06.287Z,7.08
2019-03-13T11:21:04.809Z,6.07
2019-03-13T11:23:43.846Z,6.50
2019-03-13T11:26:12.075Z,5.17
2019-03-13T11:28:58.307Z,6.70
2019-03-13T11:31:43.317Z,6.07
2019-03-13T11:34:23.588Z,6.70
2019-03-13T11:37:16.862Z,7.07
2019-03-13T11:40:00.494Z,6.07
2019-03-13T11:42:31.579Z,7.67
2019-03-13T11:45:18.109Z,6.55
2019-03-13T11:47:52.516Z,6.13
2019-03-13T11:50:37.091Z,5.83
2019-03-13T11:53:23.193Z,6.53
2019-03-13T11:56:00.195Z,6.27
2019-03-13T11:58:37.537Z,5.77
2019-03-13T12:01:17.338Z,6.87
2019-03-13T12:03:47.641Z,5.97
2019-03-13T12:06:34.126Z,6.12
2019-03-13T12:09:08.420Z,6.03
2019-03-13T12:11:45.476Z,6.10
2019-03-13T12:14:24.583Z,7.00
2019-03-13T12:17:23.694Z,5.07
2019-03-13T12:19:54.043Z,5.35
2019-03-13T12:22:41.190Z,5.00
2019-03-13T12:25:14.663Z,5.47
2019-03-13T12:28:00.011Z,4.90
2019-03-13T12:30:48.087Z,5.23
2019-03-13T12:33:38.305Z,5.07
2019-03-13T12:36:12.296Z,4.65
2019-03-13T12:38:50.245Z,4.77
2019-03-13T12:41:47.684Z,4.60
2019-03-13T12:44:56.111Z,5.22
2019-03-13T12:47:43.609Z,5.67
2019-03-13T12:50:12.838Z,5.00
2019-03-13T12:53:03.780Z,4.10
2019-03-13T12:55:48.574Z,4.70
2019-03-13T13:01:29.009Z,3.80
2019-03-13T13:04:03.057Z,3.90
2019-03-13T13:06:47.506Z,4.45
2019-03-13T13:09:30.989Z,3.37
2019-03-13T13:12:41.530Z,3.90
2019-03-13T13:15:19.639Z,4.00
2019-03-13T13:18:07.409Z,3.85
2019-03-13T13:24:01.931Z,3.92
2019-03-13T13:26:31.523Z,4.03
2019-03-13T13:29:03.845Z,4.08
2019-03-13T13:31:42.444Z,3.75
2019-03-13T13:34:08.658Z,4.20
2019-03-13T13:36:34.945Z,3.95
2019-03-13T13:39:07.568Z,3.40
2019-03-13T13:42:03.763Z,3.33
2019-03-13T13:44:36.405Z,3.33
2019-03-13T13:47:15.795Z,3.00
2019-03-13T13:49:42.175Z,4.10
2019-03-13T13:52:28.509Z,3.80
2019-03-13T13:54:54.941Z,4.13
2019-03-13T13:57:29.572Z,3.73
2019-03-13T14:00:04.174Z,3.87
2019-03-13T14:02:33.818Z,4.60
2019-03-13T14:05:12.318Z,4.00
2019-03-13T14:07:44.676Z,4.30
2019-03-13T14:10:11.674Z,4.20
2019-03-13T14:12:55.126Z,3.72
2019-03-13T14:15:27.802Z,4.22
2019-03-13T14:18:00.074Z,3.70
2019-03-13T14:24:03.805Z,3.27
2019-03-13T14:26:38.317Z,3.63
2019-03-13T14:29:23.181Z,3.90
2019-03-13T14:32:24.290Z,3.60
2019-03-13T14:34:50.863Z,3.10
2019-03-13T14:37:45.844Z,2.97
2019-03-13T14:40:28.811Z,2.70
2019-03-13T14:42:58.313Z,3.37
2019-03-13T14:45:26.854Z,4.77
2019-03-13T14:47:59.735Z,5.53
2019-03-13T14:50:32.369Z,3.93
2019-03-13T14:53:01.819Z,3.90
2019-03-13T14:55:40.757Z,2.83
2019-03-13T14:58:20.516Z,3.40
2019-03-13T15:00:51.044Z,3.03
2019-03-13T15:03:20.730Z,3.13
2019-03-13T15:05:56.111Z,3.33
2019-03-13T15:08:38.079Z,3.60
2019-03-13T15:11:04.344Z,3.47
2019-03-13T15:13:33.858Z,3.67
2019-03-13T15:16:53.294Z,2.90
2019-03-13T15:19:27.304Z,3.17
2019-03-13T15:21:54.286Z,3.50
2019-03-13T15:24:37.823Z,3.67
2019-03-13T15:27:10.394Z,3.63
2019-03-13T15:29:39.982Z,3.40
2019-03-13T15:32:28.148Z,3.93
2019-03-13T15:35:09.636Z,3.70
2019-03-13T15:38:25.642Z,4.30
2019-03-13T15:40:52.083Z,4.20
2019-03-13T15:43:24.191Z,4.67
2019-03-13T15:45:50.567Z,3.43
2019-03-13T15:48:17.885Z,3.57
2019-03-13T15:50:44.253Z,3.20
2019-03-13T15:53:10.791Z,3.30
2019-03-13T15:55:42.219Z,3.40
2019-03-13T15:58:09.183Z,2.95
2019-03-13T16:00:54.400Z,3.60
2019-03-13T16:03:23.826Z,2.57
2019-03-13T16:05:53.480Z,3.57
2019-03-13T16:08:56.802Z,3.37
2019-03-13T16:11:35.179Z,3.77
2019-03-13T16:14:01.476Z,4.80
2019-03-13T16:16:43.178Z,3.87
2019-03-13T16:19:18.546Z,3.75
2019-03-13T16:21:48.065Z,3.73
2019-03-13T16:24:51.509Z,4.13
2019-03-13T16:27:53.766Z,3.97
2019-03-13T16:33:02.541Z,3.93
2019-03-13T16:35:36.761Z,3.90
2019-03-13T16:38:03.584Z,3.85
2019-03-13T16:40:33.140Z,3.20
2019-03-13T16:42:59.496Z,4.37
2019-03-13T16:45:25.992Z,3.33
2019-03-13T16:48:32.813Z,4.10
2019-03-13T16:51:02.325Z,3.57
2019-03-13T16:53:51.470Z,4.87
2019-03-13T16:56:16.803Z,4.63
2019-03-13T16:58:43.281Z,4.03
2019-03-13T17:01:09.801Z,3.80
2019-03-13T17:03:40.289Z,4.07
2019-03-13T17:06:16.244Z,4.50
2019-03-13T17:08:42.620Z,5.23
2019-03-13T17:11:27.686Z,4.17
2019-03-13T17:13:57.705Z,5.57
2019-03-13T17:16:36.059Z,4.80
2019-03-13T17:19:06.237Z,4.90
2019-03-13T17:21:32.905Z,4.57
2019-03-13T17:23:59.268Z,5.40
2019-03-13T17:26:25.550Z,5.27
2019-03-13T17:32:00.642Z,3.87
2019-03-13T17:34:35.329Z,4.03
2019-03-13T17:37:04.749Z,3.80
2019-03-13T17:39:44.566Z,3.87
2019-03-13T17:42:16.965Z,4.00
2019-03-13T17:44:44.488Z,4.73
2019-03-13T17:47:16.790Z,4.17
2019-03-13T17:50:03.660Z,5.20
2019-03-13T17:52:34.640Z,5.50
2019-03-13T17:55:07.782Z,5.20
2019-03-13T17:57:41.600Z,3.67
2019-03-13T18:00:27.337Z,4.73
2019-03-13T18:02:53.709Z,4.03
2019-03-13T18:05:20.301Z,5.80
2019-03-13T18:07:52.669Z,4.13
2019-03-13T18:10:30.747Z,4.47
2019-03-13T18:13:08.695Z,4.20
2019-03-13T18:15:45.608Z,3.30
2019-03-13T18:18:29.247Z,5.33
2019-03-13T18:21:00.333Z,4.90
2019-03-13T18:26:55.506Z,5.13
2019-03-13T18:29:32.971Z,5.03
2019-03-13T18:32:41.720Z,4.17
2019-03-13T18:35:12.690Z,6.17
2019-03-13T18:37:42.645Z,5.13
2019-03-13T18:40:46.404Z,6.97
2019-03-13T18:43:28.720Z,4.00
2019-03-13T18:45:55.381Z,4.40
2019-03-13T18:48:30.750Z,4.67
2019-03-13T18:51:00.998Z,4.40
2019-03-13T18:53:31.475Z,4.63
2019-03-13T18:56:12.021Z,4.30
2019-03-13T19:02:41.733Z,4.60
2019-03-13T19:05:36.503Z,4.03
2019-03-13T19:08:44.448Z,5.40
2019-03-13T19:11:34.406Z,5.10
2019-03-13T19:14:08.880Z,3.57
2019-03-13T19:16:36.646Z,4.00
2019-03-13T19:19:10.827Z,3.67
2019-03-13T19:21:47.182Z,4.13
2019-03-13T19:24:17.608Z,4.83
2019-03-13T19:26:51.121Z,4.13
2019-03-13T19:29:24.619Z,4.43
2019-03-13T19:31:56.462Z,4.30
2019-03-13T19:37:09.144Z,4.03
2019-03-13T19:39:41.035Z,4.43
2019-03-13T19:42:11.160Z,4.30
2019-03-13T19:44:52.332Z,3.83
2019-03-13T19:47:21.330Z,4.53
2019-03-13T19:50:01.457Z,3.60
2019-03-13T19:52:31.643Z,4.63
2019-03-13T19:54:59.228Z,5.37
2019-03-13T19:57:27.761Z,4.00
2019-03-13T19:59:59.403Z,3.93
2019-03-13T20:02:34.423Z,3.80
2019-03-13T20:05:06.095Z,5.27
2019-03-13T20:07:59.398Z,5.03
2019-03-13T20:10:32.661Z,4.13
2019-03-13T20:13:44.778Z,4.43
2019-03-13T20:16:32.580Z,3.77
2019-03-13T20:19:05.469Z,4.83
2019-03-13T20:21:38.611Z,5.10
2019-03-13T20:24:15.206Z,4.47
2019-03-13T20:26:52.636Z,3.70
2019-03-13T20:29:21.665Z,4.50
2019-03-13T20:31:49.975Z,4.23
2019-03-13T20:34:28.691Z,5.13
2019-03-13T20:36:58.819Z,4.03
2019-03-13T20:39:50.065Z,4.13
2019-03-13T20:42:16.443Z,4.80
2019-03-13T20:44:49.730Z,5.30
2019-03-13T20:47:22.466Z,4.17
2019-03-13T20:49:56.881Z,4.23
2019-03-13T20:52:23.165Z,4.20
2019-03-13T20:54:52.636Z,4.43
2019-03-13T20:57:22.091Z,4.57
2019-03-13T20:59:51.767Z,5.30
2019-03-13T21:02:24.073Z,5.30
2019-03-13T21:04:53.571Z,5.30
2019-03-13T21:07:19.926Z,3.93
2019-03-13T21:09:46.293Z,5.00
2019-03-13T21:12:18.631Z,5.07
2019-03-13T21:14:48.102Z,5.10
2019-03-13T21:17:20.257Z,4.33
2019-03-13T21:19:48.309Z,4.80
2019-03-13T21:22:16.146Z,5.23
2019-03-13T21:24:48.315Z,4.03
2019-03-13T21:27:17.818Z,4.23
2019-03-13T21:29:53.158Z,4.37
2019-03-13T21:32:53.605Z,4.47
2019-03-13T21:35:30.749Z,4.17
2019-03-13T21:38:02.939Z,5.07
2019-03-13T21:40:57.921Z,4.73
2019-03-13T21:47:01.197Z,4.80
2019-03-13T21:49:38.008Z,4.37
2019-03-13T21:52:07.391Z,4.57
2019-03-13T21:54:33.763Z,4.20
2019-03-13T21:57:12.445Z,4.40
2019-03-13T21:59:44.970Z,4.90
2019-03-13T22:02:13.259Z,4.83
2019-03-13T22:04:44.750Z,4.00
2019-03-13T22:07:17.206Z,4.50
2019-03-13T22:09:49.698Z,4.53
2019-03-13T22:12:21.862Z,4.40
2019-03-13T22:15:36.181Z,4.03
2019-03-13T22:18:05.489Z,3.90
2019-03-13T22:20:31.833Z,4.00
2019-03-13T22:23:07.305Z,4.20
2019-03-13T22:25:36.654Z,3.93
2019-03-13T22:28:15.408Z,3.57
2019-03-13T22:30:51.012Z,4.03
2019-03-13T22:33:23.677Z,4.83
2019-03-13T22:35:56.065Z,3.73
2019-03-13T22:38:50.210Z,3.50
2019-03-13T22:41:20.187Z,3.33
2019-03-13T22:44:13.120Z,3.73
2019-03-13T22:46:42.443Z,4.30
2019-03-13T22:49:08.764Z,3.93
2019-03-13T22:51:35.944Z,3.90
2019-03-13T22:54:05.430Z,4.07
2019-03-13T22:57:14.386Z,3.87
2019-03-13T22:59:50.575Z,4.70
2019-03-13T23:02:20.106Z,4.33
2019-03-13T23:04:52.407Z,3.63
2019-03-13T23:07:36.551Z,3.67
2019-03-13T23:10:12.652Z,4.13
2019-03-13T23:12:46.166Z,3.30
2019-03-13T23:15:20.803Z,3.50
2019-03-13T23:17:50.408Z,4.00
2019-03-13T23:20:16.647Z,3.87
2019-03-13T23:22:42.915Z,3.80
2019-03-13T23:25:14.316Z,4.47
2019-03-13T23:27:51.966Z,3.25
2019-03-13T23:30:25.617Z,3.50
2019-03-13T23:32:55.038Z,3.50
2019-03-13T23:35:31.592Z,3.50
2019-03-13T23:38:01.041Z,4.03
2019-03-13T23:40:33.655Z,3.87
2019-03-13T23:42:59.989Z,3.90
2019-03-13T23:45:41.446Z,5.27
2019-03-13T23:48:10.751Z,4.08
2019-03-13T23:50:37.066Z,3.57
2019-03-13T23:53:03.398Z,3.93
2019-03-13T23:55:32.840Z,4.10
2019-03-13T23:58:26.838Z,5.87
